createdAt,value
2023-03-21T00:01:38.980Z,23.36
2023-03-21T00:04:06.869Z,23.11
2023-03-21T00:06:34.534Z,21.93
2023-03-21T00:09:03.853Z,23.73
2023-03-21T00:11:31.495Z,22.81
2023-03-21T00:14:02.376Z,23.60
2023-03-21T00:16:32.391Z,24.40
2023-03-21T00:19:06.291Z,24.51
2023-03-21T00:21:55.554Z,23.89
2023-03-21T00:24:27.237Z,23.74
2023-03-21T00:27:03.363Z,23.42
2023-03-21T00:29:38.274Z,23.55
2023-03-21T00:32:06.108Z,22.89
2023-03-21T00:34:43.446Z,23.92
2023-03-21T00:37:21.405Z,24.00
2023-03-21T00:39:50.424Z,23.64
2023-03-21T00:42:19.868Z,23.14
2023-03-21T00:44:47.679Z,22.83
2023-03-21T00:47:15.570Z,22.96
2023-03-21T00:49:43.212Z,23.31
2023-03-21T00:52:27.564Z,23.68
2023-03-21T00:55:01.496Z,22.82
2023-03-21T00:57:38.643Z,23.41
2023-03-21T01:00:10.042Z,22.79
2023-03-21T01:02:37.942Z,23.88
2023-03-21T01:05:05.974Z,24.10
2023-03-21T01:07:33.609Z,23.60
2023-03-21T01:10:02.598Z,23.58
2023-03-21T01:12:30.190Z,22.72
2023-03-21T01:14:57.906Z,23.15
2023-03-21T01:17:27.082Z,23.56
2023-03-21T01:19:55.317Z,23.38
2023-03-21T01:22:22.903Z,23.87
2023-03-21T01:24:55.472Z,23.96
2023-03-21T01:27:29.569Z,23.64
2023-03-21T01:29:57.804Z,24.09
2023-03-21T01:32:26.278Z,24.05
2023-03-21T01:34:54.078Z,23.68
2023-03-21T01:37:26.206Z,22.78
2023-03-21T01:39:53.856Z,23.34
2023-03-21T01:42:21.509Z,23.61
2023-03-21T01:44:55.276Z,23.43
2023-03-21T01:47:23.207Z,22.98
2023-03-21T01:50:03.431Z,23.16
2023-03-21T01:52:50.017Z,20.02
2023-03-21T01:55:24.974Z,21.58
2023-03-21T01:58:05.880Z,21.03
2023-03-21T02:00:49.956Z,21.28
2023-03-21T02:03:35.762Z,22.55
2023-03-21T02:06:30.452Z,22.00
2023-03-21T02:11:33.221Z,21.51
2023-03-21T02:14:06.632Z,20.44
2023-03-21T02:16:53.824Z,21.35
2023-03-21T02:19:37.325Z,20.70
2023-03-21T02:22:33.643Z,21.07
2023-03-21T02:25:22.401Z,21.26
2023-03-21T02:27:51.678Z,20.27
2023-03-21T02:30:49.480Z,21.52
2023-03-21T02:33:24.307Z,21.09
2023-03-21T02:35:58.602Z,21.03
2023-03-21T02:38:31.675Z,20.29
2023-03-21T02:41:03.447Z,20.91
2023-03-21T02:43:32.266Z,20.91
2023-03-21T02:46:02.756Z,20.93
2023-03-21T02:48:41.102Z,21.12
2023-03-21T02:51:17.359Z,21.36
2023-03-21T02:53:51.739Z,21.89
2023-03-21T02:56:23.360Z,22.38
2023-03-21T02:58:55.219Z,22.30
2023-03-21T03:01:25.944Z,21.14
2023-03-21T03:03:53.914Z,21.75
2023-03-21T03:06:22.638Z,22.05
2023-03-21T03:09:02.897Z,21.54
2023-03-21T03:11:32.484Z,22.76
2023-03-21T03:14:38.352Z,22.28
2023-03-21T03:17:08.358Z,20.80
2023-03-21T03:19:44.687Z,22.59
2023-03-21T03:22:18.892Z,22.57
2023-03-21T03:24:48.231Z,20.66
2023-03-21T03:27:17.675Z,20.86
2023-03-21T03:29:46.322Z,21.94
2023-03-21T03:32:18.007Z,22.37
2023-03-21T03:34:49.641Z,21.01
2023-03-21T03:37:21.495Z,22.18
2023-03-21T03:39:52.251Z,22.52
2023-03-21T03:42:28.160Z,22.43
2023-03-21T03:45:05.596Z,22.17
2023-03-21T03:47:37.980Z,22.03
2023-03-21T03:50:10.748Z,22.53
2023-03-21T03:52:50.042Z,22.08
2023-03-21T03:55:26.588Z,21.59
2023-03-21T03:57:56.562Z,21.73
2023-03-21T04:00:25.397Z,22.35
2023-03-21T04:02:53.105Z,22.37
2023-03-21T04:05:24.420Z,21.01
2023-03-21T04:07:52.506Z,21.77
2023-03-21T04:10:31.290Z,21.85
2023-03-21T04:12:58.913Z,21.91
2023-03-21T04:15:46.808Z,22.56
2023-03-21T04:18:17.072Z,22.83
2023-03-21T04:20:45.936Z,22.28
2023-03-21T04:23:14.089Z,22.94
2023-03-21T04:25:56.247Z,23.04
2023-03-21T04:28:27.881Z,22.19
2023-03-21T04:31:11.071Z,19.97
2023-03-21T04:33:50.427Z,21.35
2023-03-21T04:36:27.318Z,21.43
2023-03-21T04:39:00.731Z,22.22
2023-03-21T04:41:30.346Z,19.14
2023-03-21T04:43:58.448Z,21.30
2023-03-21T04:46:26.540Z,20.37
2023-03-21T04:48:54.208Z,20.75
2023-03-21T04:51:21.829Z,20.77
2023-03-21T04:53:52.406Z,21.56
2023-03-21T04:56:20.384Z,21.97
2023-03-21T04:58:49.463Z,22.64
2023-03-21T05:01:20.736Z,21.87
2023-03-21T05:03:48.997Z,22.11
2023-03-21T05:06:16.660Z,21.67
2023-03-21T05:08:44.390Z,20.50
2023-03-21T05:11:13.156Z,21.73
2023-03-21T05:13:41.445Z,20.74
2023-03-21T05:16:10.947Z,21.97
2023-03-21T05:18:39.263Z,21.49
2023-03-21T05:21:18.298Z,21.08
2023-03-21T05:23:54.118Z,20.33
2023-03-21T05:26:22.217Z,21.95
2023-03-21T05:29:05.536Z,21.43
2023-03-21T05:31:34.726Z,21.61
2023-03-21T05:34:07.899Z,22.72
2023-03-21T05:36:36.756Z,21.73
2023-03-21T05:39:08.054Z,21.82
2023-03-21T05:41:40.084Z,21.08
2023-03-21T05:44:08.095Z,20.53
2023-03-21T05:46:38.554Z,20.46
2023-03-21T05:49:06.976Z,21.28
2023-03-21T05:51:35.018Z,22.48
2023-03-21T05:54:02.684Z,22.09
2023-03-21T05:56:30.570Z,21.77
2023-03-21T05:59:03.343Z,21.17
2023-03-21T06:01:34.986Z,21.44
2023-03-21T06:04:15.691Z,22.21
2023-03-21T06:06:44.239Z,21.37
2023-03-21T06:09:11.942Z,22.71
2023-03-21T06:11:42.364Z,23.07
2023-03-21T06:14:28.397Z,21.88
2023-03-21T06:17:18.985Z,21.71
2023-03-21T06:19:56.488Z,22.31
2023-03-21T06:22:30.948Z,21.84
2023-03-21T06:24:59.015Z,21.44
2023-03-21T06:27:27.741Z,22.26
2023-03-21T06:29:57.976Z,20.69
2023-03-21T06:32:25.773Z,22.37
2023-03-21T06:34:59.585Z,21.24
2023-03-21T06:37:27.478Z,21.96
2023-03-21T06:39:55.832Z,22.11
2023-03-21T06:42:24.404Z,22.11
2023-03-21T06:44:53.830Z,20.53
2023-03-21T06:47:21.582Z,22.78
2023-03-21T06:49:50.522Z,22.21
2023-03-21T06:52:19.631Z,22.83
2023-03-21T06:54:47.357Z,19.91
2023-03-21T06:57:18.004Z,19.67
2023-03-21T06:59:46.241Z,21.58
2023-03-21T07:02:22.188Z,22.72
2023-03-21T07:05:19.275Z,23.20
2023-03-21T07:07:48.656Z,23.68
2023-03-21T07:10:16.306Z,21.83
2023-03-21T07:12:49.410Z,23.31
2023-03-21T07:15:21.442Z,22.41
2023-03-21T07:17:52.538Z,22.52
2023-03-21T07:20:20.911Z,23.32
2023-03-21T07:22:51.178Z,20.76
2023-03-21T07:25:20.189Z,20.28
2023-03-21T07:27:51.058Z,20.95
2023-03-21T07:30:20.189Z,22.59
2023-03-21T07:32:47.776Z,21.73
2023-03-21T07:35:17.294Z,22.09
2023-03-21T07:37:45.038Z,21.65
2023-03-21T07:40:17.782Z,23.04
2023-03-21T07:42:45.648Z,22.01
2023-03-21T07:45:16.587Z,22.31
2023-03-21T07:47:46.131Z,22.16
2023-03-21T07:50:13.910Z,22.22
2023-03-21T07:52:42.002Z,21.09
2023-03-21T07:55:10.465Z,21.25
2023-03-21T07:57:39.498Z,20.47
2023-03-21T08:00:07.875Z,21.07
2023-03-21T08:02:40.983Z,22.13
2023-03-21T08:05:11.683Z,23.26
2023-03-21T08:07:39.386Z,21.51
2023-03-21T08:10:07.750Z,19.76
2023-03-21T08:12:35.377Z,20.99
2023-03-21T08:15:04.536Z,22.31
2023-03-21T08:17:32.194Z,22.26
2023-03-21T08:19:59.854Z,22.37
2023-03-21T08:22:27.526Z,24.06
2023-03-21T08:24:55.635Z,23.63
2023-03-21T08:27:23.476Z,21.68
2023-03-21T08:29:51.141Z,23.20
2023-03-21T08:32:20.834Z,22.55
2023-03-21T08:34:48.438Z,22.07
2023-03-21T08:37:16.342Z,21.41
2023-03-21T08:39:44.019Z,20.52
2023-03-21T08:42:11.695Z,21.92
2023-03-21T08:44:41.433Z,22.08
2023-03-21T08:47:09.262Z,20.40
2023-03-21T08:49:38.366Z,22.63
2023-03-21T08:52:06.830Z,21.85
2023-03-21T08:54:34.524Z,21.97
2023-03-21T08:57:02.181Z,22.45
2023-03-21T08:59:29.772Z,23.74
2023-03-21T09:01:57.494Z,23.05
2023-03-21T09:04:26.025Z,22.62
2023-03-21T09:06:56.295Z,21.34
2023-03-21T09:09:23.959Z,21.70
2023-03-21T09:11:52.581Z,22.77
2023-03-21T09:14:21.836Z,22.26
2023-03-21T09:16:52.106Z,22.68
2023-03-21T09:19:19.777Z,24.72
2023-03-21T09:21:47.783Z,24.28
2023-03-21T09:24:18.094Z,24.16
2023-03-21T09:26:46.441Z,21.16
2023-03-21T09:29:15.939Z,22.07
2023-03-21T09:31:44.088Z,22.93
2023-03-21T09:34:12.576Z,22.04
2023-03-21T09:36:42.187Z,23.47
2023-03-21T09:39:09.934Z,25.10
2023-03-21T09:41:45.210Z,23.62
2023-03-21T09:44:17.200Z,21.59
2023-03-21T09:46:45.996Z,23.40
2023-03-21T09:49:16.989Z,23.10
2023-03-21T09:51:46.179Z,23.34
2023-03-21T09:54:15.266Z,21.57
2023-03-21T09:56:44.727Z,21.91
2023-03-21T09:59:12.637Z,23.66
2023-03-21T10:01:45.370Z,24.01
2023-03-21T10:04:15.257Z,22.76
2023-03-21T10:06:45.203Z,24.14
2023-03-21T10:09:15.072Z,24.68
2023-03-21T10:11:44.838Z,26.27
2023-03-21T10:14:14.581Z,22.52
2023-03-21T10:16:42.832Z,24.26
2023-03-21T10:19:12.025Z,25.45
2023-03-21T10:21:59.598Z,25.46
2023-03-21T10:24:28.970Z,25.54
2023-03-21T10:26:58.063Z,24.32
2023-03-21T10:29:26.824Z,24.02
2023-03-21T10:31:54.592Z,21.26
2023-03-21T10:34:24.762Z,24.07
2023-03-21T10:36:52.357Z,23.80
2023-03-21T10:39:22.910Z,21.47
2023-03-21T10:45:29.215Z,22.86
2023-03-21T10:47:58.278Z,25.24
2023-03-21T10:50:28.058Z,24.01
2023-03-21T10:53:00.399Z,22.07
2023-03-21T10:55:29.110Z,24.56
2023-03-21T10:57:58.854Z,22.82
2023-03-21T11:00:27.289Z,25.31
2023-03-21T11:02:56.476Z,25.65
2023-03-21T11:05:25.256Z,23.85
2023-03-21T11:07:59.824Z,25.40
2023-03-21T11:10:29.457Z,22.63
2023-03-21T11:12:57.547Z,23.44
2023-03-21T11:15:30.149Z,25.42
2023-03-21T11:17:59.349Z,24.78
2023-03-21T11:20:27.026Z,24.92
2023-03-21T11:22:55.799Z,24.59
2023-03-21T11:25:24.136Z,24.76
2023-03-21T11:27:52.241Z,23.49
2023-03-21T11:30:22.060Z,25.24
2023-03-21T11:32:51.878Z,24.79
2023-03-21T11:35:22.030Z,26.11
2023-03-21T11:37:53.182Z,24.61
2023-03-21T11:40:21.797Z,24.57
2023-03-21T11:42:51.742Z,25.64
2023-03-21T11:45:20.333Z,24.81
2023-03-21T11:47:49.394Z,22.75
2023-03-21T11:50:22.177Z,23.78
2023-03-21T11:52:52.465Z,22.56
2023-03-21T11:55:23.967Z,24.61
2023-03-21T11:57:54.857Z,23.62
2023-03-21T12:00:26.123Z,23.38
2023-03-21T12:03:11.502Z,22.27
2023-03-21T12:05:41.792Z,21.97
2023-03-21T12:08:10.355Z,25.21
2023-03-21T12:10:40.639Z,23.65
2023-03-21T12:13:14.577Z,24.64
2023-03-21T12:15:43.686Z,25.96
2023-03-21T12:18:15.531Z,23.20
2023-03-21T12:20:44.811Z,25.09
2023-03-21T12:23:15.996Z,23.82
2023-03-21T12:25:44.626Z,23.27
2023-03-21T12:28:21.287Z,23.67
2023-03-21T12:30:55.920Z,22.72
2023-03-21T12:33:29.799Z,22.96
2023-03-21T12:36:08.084Z,22.39
2023-03-21T12:38:38.034Z,22.40
2023-03-21T12:41:12.753Z,24.32
2023-03-21T12:43:43.662Z,24.21
2023-03-21T12:46:12.541Z,24.79
2023-03-21T12:48:41.750Z,26.67
2023-03-21T12:51:11.503Z,24.19
2023-03-21T12:53:56.798Z,22.72
2023-03-21T12:56:25.581Z,25.48
2023-03-21T12:58:53.796Z,25.12
2023-03-21T13:01:22.048Z,26.23
2023-03-21T13:03:51.462Z,24.99
2023-03-21T13:06:20.758Z,26.26
2023-03-21T13:08:49.210Z,26.78
2023-03-21T13:11:17.946Z,26.23
2023-03-21T13:13:46.099Z,25.86
2023-03-21T13:16:14.072Z,25.44
2023-03-21T13:18:45.518Z,23.36
2023-03-21T13:21:14.959Z,23.63
2023-03-21T13:23:47.670Z,23.05
2023-03-21T13:26:16.021Z,23.96
2023-03-21T13:28:43.646Z,26.64
2023-03-21T13:31:18.856Z,25.41
2023-03-21T13:33:46.826Z,24.07
2023-03-21T13:36:15.105Z,25.95
2023-03-21T13:38:45.766Z,24.89
2023-03-21T13:41:14.202Z,25.79
2023-03-21T13:43:43.870Z,23.85
2023-03-21T13:46:12.099Z,24.12
2023-03-21T13:48:49.386Z,23.93
2023-03-21T13:51:39.515Z,23.23
2023-03-21T13:54:17.633Z,21.93
2023-03-21T13:56:49.749Z,24.68
2023-03-21T13:59:18.638Z,23.10
2023-03-21T14:01:59.179Z,22.27
2023-03-21T14:04:32.215Z,23.58
2023-03-21T14:07:11.211Z,24.12
2023-03-21T14:09:40.570Z,25.36
2023-03-21T14:12:08.815Z,24.22
2023-03-21T14:14:38.439Z,24.27
2023-03-21T14:17:12.431Z,25.08
2023-03-21T14:19:40.212Z,24.09
2023-03-21T14:22:10.683Z,27.66
2023-03-21T14:24:38.453Z,24.50
2023-03-21T14:27:09.639Z,25.13
2023-03-21T14:29:38.004Z,27.79
2023-03-21T14:32:05.917Z,23.66
2023-03-21T14:34:34.265Z,25.36
2023-03-21T14:37:01.891Z,23.58
2023-03-21T14:39:30.038Z,27.02
2023-03-21T14:41:58.319Z,26.13
2023-03-21T14:44:28.952Z,26.40
2023-03-21T14:47:01.299Z,26.12
2023-03-21T14:49:29.589Z,27.45
2023-03-21T14:51:58.321Z,26.04
2023-03-21T14:54:27.222Z,24.31
2023-03-21T14:56:56.461Z,26.47
2023-03-21T14:59:25.190Z,24.99
2023-03-21T15:01:54.551Z,23.66
2023-03-21T15:04:22.842Z,23.55
2023-03-21T15:06:51.731Z,25.37
2023-03-21T15:09:19.583Z,23.69
2023-03-21T15:11:50.920Z,24.79
2023-03-21T15:14:18.555Z,24.34
2023-03-21T15:16:46.222Z,26.59
2023-03-21T15:19:17.599Z,26.02
2023-03-21T15:21:45.940Z,22.79
2023-03-21T15:24:15.864Z,25.81
2023-03-21T15:26:45.082Z,25.66
2023-03-21T15:29:13.053Z,25.27
2023-03-21T15:31:40.985Z,25.08
2023-03-21T15:34:08.718Z,25.16
2023-03-21T15:36:38.666Z,21.66
2023-03-21T15:39:06.866Z,24.51
2023-03-21T15:41:34.524Z,24.17
2023-03-21T15:44:03.210Z,25.00
2023-03-21T15:46:34.735Z,25.60
2023-03-21T15:49:09.260Z,25.82
2023-03-21T15:51:38.279Z,26.07
2023-03-21T15:54:06.849Z,27.02
2023-03-21T15:56:36.263Z,26.22
2023-03-21T15:59:05.614Z,25.54
2023-03-21T16:01:38.788Z,24.47
2023-03-21T16:04:07.268Z,25.45
2023-03-21T16:06:35.182Z,25.88
2023-03-21T16:09:07.904Z,26.34
2023-03-21T16:11:39.411Z,24.89
2023-03-21T16:14:09.134Z,24.62
2023-03-21T16:16:36.753Z,24.25
2023-03-21T16:19:04.481Z,25.20
2023-03-21T16:21:34.102Z,25.62
2023-03-21T16:24:02.166Z,25.84
2023-03-21T16:26:32.168Z,25.22
2023-03-21T16:29:00.188Z,24.75
2023-03-21T16:31:28.513Z,26.11
2023-03-21T16:33:56.335Z,26.51
2023-03-21T16:36:24.695Z,25.23
2023-03-21T16:38:52.673Z,27.47
2023-03-21T16:41:20.803Z,25.59
2023-03-21T16:43:50.460Z,24.62
2023-03-21T16:46:18.637Z,24.86
2023-03-21T16:48:46.818Z,24.56
2023-03-21T16:51:14.897Z,24.60
2023-03-21T16:53:42.515Z,25.40
2023-03-21T16:56:12.050Z,24.58
2023-03-21T16:58:39.685Z,24.53
2023-03-21T17:01:09.812Z,23.92
2023-03-21T17:03:37.901Z,24.13
2023-03-21T17:06:06.058Z,23.81
2023-03-21T17:08:33.626Z,24.54
2023-03-21T17:11:03.409Z,23.73
2023-03-21T17:13:31.970Z,23.85
2023-03-21T17:15:59.598Z,23.78
2023-03-21T17:18:29.244Z,24.91
2023-03-21T17:20:56.884Z,23.84
2023-03-21T17:23:24.595Z,23.79
2023-03-21T17:25:52.243Z,23.85
2023-03-21T17:28:19.852Z,23.44
2023-03-21T17:30:47.546Z,24.65
2023-03-21T17:33:15.692Z,24.05
2023-03-21T17:35:44.696Z,23.56
2023-03-21T17:38:13.266Z,23.52
2023-03-21T17:40:41.209Z,23.59
2023-03-21T17:43:10.090Z,23.51
2023-03-21T17:45:37.708Z,23.60
2023-03-21T17:48:05.739Z,23.31
2023-03-21T17:50:36.867Z,23.88
2023-03-21T17:53:06.193Z,23.46
2023-03-21T17:55:36.956Z,24.39
2023-03-21T17:58:05.583Z,23.86
2023-03-21T18:00:33.187Z,23.78
2023-03-21T18:03:01.026Z,23.44
2023-03-21T18:05:28.706Z,23.78
2023-03-21T18:08:12.687Z,23.73
2023-03-21T18:10:42.653Z,23.40
2023-03-21T18:13:10.770Z,23.80
2023-03-21T18:15:44.196Z,23.96
2023-03-21T18:18:12.834Z,23.76
2023-03-21T18:20:51.693Z,23.66
2023-03-21T18:23:20.857Z,23.32
2023-03-21T18:25:50.054Z,23.68
2023-03-21T18:28:20.787Z,23.68
2023-03-21T18:31:07.662Z,23.58
2023-03-21T18:33:36.616Z,23.14
2023-03-21T18:36:07.605Z,23.79
2023-03-21T18:38:35.791Z,23.86
2023-03-21T18:41:04.819Z,23.67
2023-03-21T18:46:20.399Z,24.14
2023-03-21T18:48:49.217Z,23.17
2023-03-21T18:51:17.711Z,23.59
2023-03-21T18:53:45.752Z,24.07
2023-03-21T18:56:56.142Z,24.70
2023-03-21T18:59:02.909Z,23.68
2023-03-21T19:01:30.861Z,23.67
2023-03-21T19:04:20.441Z,24.73
2023-03-21T19:06:47.791Z,23.91
2023-03-21T19:09:16.016Z,24.00
2023-03-21T19:11:47.179Z,24.04
2023-03-21T19:14:15.528Z,23.90
2023-03-21T19:17:23.121Z,24.08
2023-03-21T19:19:31.085Z,25.97
2023-03-21T19:21:58.785Z,24.46
2023-03-21T19:24:28.906Z,23.87
2023-03-21T19:26:58.180Z,24.22
2023-03-21T19:29:26.116Z,23.75
2023-03-21T19:31:53.914Z,25.15
2023-03-21T19:34:21.710Z,25.19
2023-03-21T19:36:51.959Z,26.37
2023-03-21T19:39:22.234Z,26.65
2023-03-21T19:41:50.346Z,26.62
2023-03-21T19:44:20.911Z,27.12
2023-03-21T19:46:48.994Z,26.28
2023-03-21T19:49:20.174Z,25.95
2023-03-21T19:51:47.871Z,25.56
2023-03-21T19:54:17.298Z,24.36
2023-03-21T19:56:47.527Z,25.15
2023-03-21T19:59:15.856Z,25.68
2023-03-21T20:01:44.989Z,25.97
2023-03-21T20:04:13.133Z,26.00
2023-03-21T20:06:40.878Z,26.35
2023-03-21T20:11:57.735Z,26.22
2023-03-21T20:14:25.852Z,24.37
2023-03-21T20:16:57.343Z,25.25
2023-03-21T20:19:25.381Z,25.48
2023-03-21T20:21:58.810Z,23.66
2023-03-21T20:24:28.212Z,25.07
2023-03-21T20:26:57.358Z,25.63
2023-03-21T20:32:14.338Z,25.12
2023-03-21T20:34:44.285Z,24.65
2023-03-21T20:37:12.341Z,25.41
2023-03-21T20:39:39.982Z,24.88
2023-03-21T20:42:07.652Z,24.91
2023-03-21T20:44:52.322Z,24.59
2023-03-21T20:47:24.898Z,25.64
2023-03-21T20:49:52.521Z,24.53
2023-03-21T20:55:09.323Z,25.46
2023-03-21T20:57:38.758Z,25.26
2023-03-21T21:00:14.674Z,25.33
2023-03-21T21:02:44.509Z,25.81
2023-03-21T21:05:33.080Z,25.83
2023-03-21T21:08:01.870Z,24.74
2023-03-21T21:10:29.628Z,24.14
2023-03-21T21:12:57.281Z,24.87
2023-03-21T21:15:25.058Z,25.78
2023-03-21T21:18:06.710Z,25.11
2023-03-21T21:20:35.453Z,24.64
2023-03-21T21:23:03.123Z,25.41
2023-03-21T21:25:32.625Z,25.78
2023-03-21T21:28:01.554Z,25.73
2023-03-21T21:30:30.319Z,26.07
2023-03-21T21:33:00.698Z,25.91
2023-03-21T21:35:28.462Z,26.08
2023-03-21T21:37:56.167Z,26.04
2023-03-21T21:40:24.228Z,26.11
2023-03-21T21:42:51.862Z,25.52
2023-03-21T21:45:20.133Z,24.85
2023-03-21T21:47:51.481Z,24.85
2023-03-21T21:50:22.480Z,24.72
2023-03-21T21:52:54.169Z,24.79
2023-03-21T21:55:22.339Z,24.78
2023-03-21T21:57:52.795Z,24.93
2023-03-21T22:00:25.129Z,24.82
2023-03-21T22:02:53.080Z,24.86
2023-03-21T22:05:22.272Z,24.78
2023-03-21T22:07:50.324Z,26.05
2023-03-21T22:10:18.123Z,26.09
2023-03-21T22:12:46.080Z,25.23
2023-03-21T22:15:13.812Z,24.57
2023-03-21T22:17:41.665Z,25.49
2023-03-21T22:20:10.059Z,25.75
2023-03-21T22:22:39.223Z,25.53
2023-03-21T22:25:10.384Z,25.25
2023-03-21T22:27:38.141Z,25.94
2023-03-21T22:30:07.386Z,25.53
2023-03-21T22:32:35.256Z,25.01
2023-03-21T22:35:03.389Z,24.95
2023-03-21T22:37:31.333Z,25.07
2023-03-21T22:40:00.385Z,24.00
2023-03-21T22:42:28.047Z,24.52
2023-03-21T22:44:55.788Z,25.32
2023-03-21T22:47:23.473Z,24.87
2023-03-21T22:49:51.613Z,24.64
2023-03-21T22:52:19.234Z,24.24
2023-03-21T22:54:47.730Z,24.07
2023-03-21T22:57:16.989Z,24.84
2023-03-21T22:59:44.622Z,24.09
2023-03-21T23:02:12.242Z,23.05
2023-03-21T23:04:39.980Z,23.56
2023-03-21T23:07:07.740Z,23.67
2023-03-21T23:09:35.437Z,23.14
2023-03-21T23:12:03.029Z,23.37
2023-03-21T23:14:31.999Z,23.77
2023-03-21T23:17:02.672Z,24.56
2023-03-21T23:19:30.714Z,24.05
2023-03-21T23:21:58.553Z,23.10
2023-03-21T23:24:26.607Z,24.25
2023-03-21T23:26:54.217Z,25.36
2023-03-21T23:29:21.833Z,25.21
2023-03-21T23:31:50.858Z,23.96
2023-03-21T23:34:18.519Z,24.74
2023-03-21T23:36:46.153Z,23.86
2023-03-21T23:39:14.129Z,23.93
2023-03-21T23:41:42.711Z,25.15
2023-03-21T23:44:10.375Z,24.98
2023-03-21T23:46:38.022Z,23.92
2023-03-21T23:49:06.994Z,24.53
2023-03-21T23:51:34.567Z,24.68
2023-03-21T23:54:02.434Z,24.88
2023-03-21T23:56:30.221Z,24.81
2023-03-21T23:58:58.157Z,24.01
